Time;durP1;ratioP1;P1;durP2;ratioP2;P2;SDS_P1;SDS_P2;PMS_P1;PMS_P2;Temp;Humidity;BMP_temperature;BMP_pressure;BME280_temperature;BME280_humidity;BME280_pressure;Samples;Min_cycle;Max_cycle;Signal;HPM_P1;HPM_P2
2022/09/21 00:02:27;;;;;;;11.55;6.55;;;;;;;9.78;100.00;100173.59;6293033;28;20286;-76
2022/09/21 00:05:28;;;;;;;10.43;4.50;;;;;;;9.69;100.00;100169.72;6293079;28;20040;-76
2022/09/21 00:08:29;;;;;;;7.55;3.92;;;;;;;9.68;100.00;100172.44;6296584;28;20044;-75
2022/09/21 00:11:31;;;;;;;8.18;3.75;;;;;;;9.63;100.00;100179.63;6276776;28;20480;-76
2022/09/21 00:14:32;;;;;;;5.90;3.28;;;;;;;9.65;100.00;100181.22;6281461;28;20123;-75
2022/09/21 00:17:33;;;;;;;6.80;3.65;;;;;;;9.65;100.00;100180.41;6297353;28;20051;-76
2022/09/21 00:20:34;;;;;;;7.55;3.50;;;;;;;9.61;100.00;100184.09;6297282;28;20124;-75
2022/09/21 00:23:35;;;;;;;2.13;1.75;;;;;;;9.51;100.00;100177.69;6297036;28;20048;-76
2022/09/21 00:26:36;;;;;;;4.00;1.55;;;;;;;9.58;100.00;100182.50;6297217;28;20044;-76
2022/09/21 00:29:37;;;;;;;1.48;1.08;;;;;;;9.53;100.00;100184.50;6296747;28;20087;-76
2022/09/21 00:32:41;;;;;;;6.35;1.17;;;;;;;9.53;100.00;100196.69;6298702;28;20132;-75
2022/09/21 00:35:41;;;;;;;2.05;1.15;;;;;;;9.57;100.00;100193.84;6296847;28;20033;-75
2022/09/21 00:38:44;;;;;;;1.77;1.15;;;;;;;9.59;100.00;100191.97;6297503;28;20047;-76
2022/09/21 00:41:45;;;;;;;1.58;1.10;;;;;;;9.59;100.00;100191.16;6299496;28;20079;-76
2022/09/21 00:44:46;;;;;;;1.25;1.00;;;;;;;9.56;100.00;100186.97;6298457;28;20437;-76
2022/09/21 00:47:50;;;;;;;1.40;1.10;;;;;;;9.55;100.00;100182.66;6297937;28;20484;-75
2022/09/21 00:50:56;;;;;;;1.73;1.27;;;;;;;9.52;100.00;100187.22;6298086;28;20045;-76
2022/09/21 00:54:08;;;;;;;1.35;1.00;;;;;;;9.55;100.00;100187.03;6296559;28;20487;-75
2022/09/21 00:57:10;;;;;;;2.40;1.10;;;;;;;9.53;100.00;100184.50;6297572;28;20481;-76
2022/09/21 01:00:11;;;;;;;2.63;1.38;;;;;;;9.52;100.00;100190.66;6296363;28;20075;-76
2022/09/21 01:03:12;;;;;;;1.92;1.00;;;;;;;9.41;100.00;100190.38;6297309;28;20644;-76
2022/09/21 01:06:15;;;;;;;2.58;1.10;;;;;;;9.37;100.00;100192.31;6297355;28;20098;-76
2022/09/21 01:09:17;;;;;;;1.55;0.80;;;;;;;9.34;100.00;100195.09;6296011;28;20107;-76
2022/09/21 01:12:27;;;;;;;1.65;0.90;;;;;;;9.38;100.00;100195.75;6296068;28;20040;-75
2022/09/21 01:15:51;;;;;;;1.15;0.82;;;;;;;9.30;100.00;100187.53;6295774;28;20044;-76
2022/09/21 01:19:05;;;;;;;0.98;0.93;;;;;;;9.27;100.00;100189.38;6295462;28;20472;-76
2022/09/21 01:22:30;;;;;;;0.98;0.82;;;;;;;9.25;100.00;100195.59;6296318;28;20094;-75
2022/09/21 01:25:52;;;;;;;0.90;0.68;;;;;;;9.28;100.00;100193.63;6297339;28;20057;-76
2022/09/21 01:29:15;;;;;;;1.63;0.98;;;;;;;9.17;100.00;100192.56;6297295;28;20040;-76
2022/09/21 01:32:37;;;;;;;1.00;0.80;;;;;;;9.24;100.00;100193.88;6298135;28;20036;-75
2022/09/21 01:35:47;;;;;;;0.70;0.70;;;;;;;9.14;100.00;100187.50;6296822;28;20086;-76
2022/09/21 01:38:51;;;;;;;1.30;1.10;;;;;;;9.16;100.00;100183.03;6295410;28;20060;-76
2022/09/21 01:41:55;;;;;;;0.77;0.77;;;;;;;9.11;100.00;100185.06;6296452;28;20119;-75
2022/09/21 01:45:00;;;;;;;1.35;0.90;;;;;;;9.08;100.00;100192.13;6296232;28;20518;-76
2022/09/21 01:48:02;;;;;;;1.67;1.02;;;;;;;9.09;100.00;100187.75;6296739;28;20094;-76
2022/09/21 01:51:08;;;;;;;0.85;0.82;;;;;;;9.01;100.00;100187.31;6296567;28;20547;-76
2022/09/21 01:54:15;;;;;;;1.13;0.85;;;;;;;9.03;100.00;100188.91;6296793;28;20056;-76
2022/09/21 01:57:42;;;;;;;0.60;0.60;;;;;;;8.92;100.00;100193.84;6297913;28;20055;-75
2022/09/21 02:00:47;;;;;;;1.70;1.02;;;;;;;8.93;100.00;100192.91;6297779;28;20037;-76
2022/09/21 02:03:58;;;;;;;1.85;0.88;;;;;;;8.90;100.00;100185.25;6297616;28;20064;-76
2022/09/21 02:06:59;;;;;;;1.50;0.77;;;;;;;8.88;100.00;100184.50;6297414;28;20044;-76
2022/09/21 02:10:01;;;;;;;1.23;0.90;;;;;;;8.89;100.00;100188.78;6296230;28;20044;-76
2022/09/21 02:13:05;;;;;;;1.02;0.80;;;;;;;8.84;100.00;100185.59;6313464;28;20474;-76
2022/09/21 02:16:06;;;;;;;1.83;1.05;;;;;;;8.82;100.00;100192.63;6297395;28;20082;-76
2022/09/21 02:19:17;;;;;;;1.90;1.30;;;;;;;8.81;100.00;100189.19;6297248;28;20068;-76
2022/09/21 02:22:32;;;;;;;1.23;1.05;;;;;;;8.76;100.00;100192.94;6297035;28;20474;-75
2022/09/21 02:25:42;;;;;;;2.42;1.10;;;;;;;8.70;100.00;100190.66;6295873;28;20040;-76
2022/09/21 02:28:50;;;;;;;1.23;1.05;;;;;;;8.64;100.00;100189.19;6294507;28;20047;-75
2022/09/21 02:32:05;;;;;;;0.95;0.88;;;;;;;8.58;100.00;100186.91;6293996;28;20060;-75
2022/09/21 02:35:38;;;;;;;8.98;0.90;;;;;;;8.54;100.00;100203.59;6295263;28;20037;-76
2022/09/21 02:39:06;;;;;;;1.75;1.55;;;;;;;8.54;100.00;100204.41;6289425;28;20105;-76
2022/09/21 02:42:28;;;;;;;2.28;0.98;;;;;;;8.53;100.00;100213.16;6295714;28;20419;-76
2022/09/21 02:45:37;;;;;;;;;;;;;;;8.52;100.00;100208.03;6296151;28;20438;-75
2022/09/21 02:48:43;;;;;;;1.95;1.25;;;;;;;8.51;100.00;100201.16;6296964;28;19924;-76
2022/09/21 02:51:49;;;;;;;2.75;1.35;;;;;;;8.45;100.00;100203.13;6295565;28;20051;-76
2022/09/21 02:54:53;;;;;;;1.83;1.10;;;;;;;8.43;100.00;100209.31;6296890;28;20041;-75
2022/09/21 02:57:56;;;;;;;1.02;0.93;;;;;;;8.37;100.00;100207.81;6296621;28;20051;-76
2022/09/21 03:00:58;;;;;;;1.15;0.93;;;;;;;8.39;100.00;100211.19;6295799;28;20128;-76
2022/09/21 03:03:59;;;;;;;1.33;1.02;;;;;;;8.37;100.00;100210.44;6295537;28;20048;-76
2022/09/21 03:07:00;;;;;;;1.40;1.15;;;;;;;8.35;100.00;100211.44;6295472;28;20044;-76
2022/09/21 03:10:01;;;;;;;1.00;0.90;;;;;;;8.34;100.00;100207.13;6295405;28;20044;-76
2022/09/21 03:13:02;;;;;;;1.10;1.00;;;;;;;8.25;100.00;100205.84;6296525;28;20481;-76
2022/09/21 03:16:06;;;;;;;1.55;1.00;;;;;;;8.33;100.00;100206.28;6296911;28;20126;-76
2022/09/21 03:19:06;;;;;;;2.88;1.30;;;;;;;8.28;100.00;100201.34;6295483;28;20182;-76
2022/09/21 03:22:07;;;;;;;1.70;1.20;;;;;;;8.33;100.00;100213.25;6295805;28;20048;-76
2022/09/21 03:25:11;;;;;;;1.23;1.13;;;;;;;8.28;100.00;100209.13;6293565;28;20548;-76
2022/09/21 03:28:13;;;;;;;1.73;1.30;;;;;;;8.25;100.00;100208.44;6295800;28;20037;-75
2022/09/21 03:31:14;;;;;;;;;;;;;;;8.25;100.00;100216.22;6296663;28;20052;-75
2022/09/21 03:34:15;;;;;;;2.30;1.05;;;;;;;8.15;100.00;100217.59;6296656;28;19971;-76
2022/09/21 03:37:18;;;;;;;1.40;1.10;;;;;;;8.08;100.00;100217.88;6296522;28;20166;-75
2022/09/21 03:40:19;;;;;;;1.15;0.88;;;;;;;8.12;100.00;100220.34;6296464;28;20044;-75
2022/09/21 03:43:20;;;;;;;1.38;0.90;;;;;;;8.17;100.00;100227.00;6301106;28;20097;-75
2022/09/21 03:46:21;;;;;;;0.82;0.80;;;;;;;8.16;100.00;100227.09;6300989;28;20040;-75
2022/09/21 03:49:22;;;;;;;1.70;1.20;;;;;;;8.21;100.00;100230.28;6300847;28;20048;-76
2022/09/21 03:52:23;;;;;;;1.70;0.90;;;;;;;8.21;100.00;100240.69;6300829;28;20403;-76
2022/09/21 03:55:28;;;;;;;1.13;1.00;;;;;;;8.30;100.00;100234.19;6299846;28;20513;-75
2022/09/21 03:58:31;;;;;;;1.10;1.00;;;;;;;8.20;100.00;100234.66;6299654;28;20041;-76
2022/09/21 04:01:32;;;;;;;2.40;1.05;;;;;;;8.32;100.00;100240.16;6299549;28;20475;-76
2022/09/21 04:04:33;;;;;;;1.58;1.00;;;;;;;8.35;100.00;100237.44;6300773;28;20047;-75
2022/09/21 04:07:34;;;;;;;1.70;1.35;;;;;;;8.33;100.00;100240.09;6299364;28;20475;-76
2022/09/21 04:10:35;;;;;;;1.48;1.38;;;;;;;8.27;100.00;100236.03;6300540;28;20052;-76
2022/09/21 04:13:36;;;;;;;1.90;1.35;;;;;;;8.23;100.00;100234.50;6299369;28;20041;-75
2022/09/21 04:16:39;;;;;;;1.75;1.40;;;;;;;8.21;100.00;100240.69;6297398;28;20036;-75
2022/09/21 04:19:40;;;;;;;2.08;1.60;;;;;;;8.17;100.00;100242.59;6299021;28;20479;-75
2022/09/21 04:22:41;;;;;;;1.42;1.10;;;;;;;8.08;100.00;100243.88;6300152;28;20051;-75
2022/09/21 04:25:42;;;;;;;1.90;1.50;;;;;;;8.01;100.00;100241.63;6300162;28;20502;-75
2022/09/21 04:28:43;;;;;;;1.40;1.10;;;;;;;8.06;100.00;100252.66;6298774;28;20402;-75
2022/09/21 04:31:44;;;;;;;1.42;1.23;;;;;;;8.15;100.00;100252.22;6287485;28;20103;-76
2022/09/21 04:34:45;;;;;;;2.92;1.30;;;;;;;8.14;100.00;100255.75;6275032;28;20070;-75
2022/09/21 04:37:45;;;;;;;1.10;1.00;;;;;;;8.20;100.00;100260.66;6295182;28;20070;-75
2022/09/21 04:40:54;;;;;;;3.17;1.70;;;;;;;8.18;100.00;100266.84;6292655;28;20045;-75
2022/09/21 04:43:54;;;;;;;1.77;1.10;;;;;;;8.33;100.00;100265.25;6283443;28;20093;-76
2022/09/21 04:46:56;;;;;;;1.40;1.30;;;;;;;8.52;100.00;100266.06;6299532;28;20041;-75
2022/09/21 04:49:57;;;;;;;1.35;1.20;;;;;;;8.66;100.00;100273.19;6298477;28;20041;-76
2022/09/21 04:52:58;;;;;;;1.75;1.38;;;;;;;8.58;100.00;100263.16;6281820;28;20051;-76
2022/09/21 04:55:59;;;;;;;2.05;1.45;;;;;;;8.75;100.00;100266.69;6296245;28;20605;-75
2022/09/21 04:59:00;;;;;;;1.42;1.20;;;;;;;8.77;100.00;100267.44;6247697;28;20048;-75
2022/09/21 05:02:03;;;;;;;2.65;1.73;;;;;;;8.75;100.00;100271.88;6259902;28;20076;-75
2022/09/21 05:05:04;;;;;;;1.70;1.52;;;;;;;8.79;100.00;100269.09;6296015;28;20041;-75
2022/09/21 05:08:05;;;;;;;3.08;1.38;;;;;;;8.88;100.00;100272.97;6297191;28;20036;-75
2022/09/21 05:11:07;;;;;;;2.60;1.85;;;;;;;8.72;100.00;100270.28;6286041;28;20044;-75
2022/09/21 05:14:09;;;;;;;2.75;1.48;;;;;;;8.53;100.00;100272.13;6254635;28;20423;-75
2022/09/21 05:17:11;;;;;;;5.90;2.17;;;;;;;8.81;100.00;100276.78;6287440;28;20061;-75
2022/09/21 05:20:12;;;;;;;2.80;2.00;;;;;;;8.90;100.00;100281.53;6270899;28;20040;-75
2022/09/21 05:23:12;;;;;;;4.35;1.92;;;;;;;9.00;100.00;100276.72;6299713;28;20044;-75
2022/09/21 05:26:13;;;;;;;2.85;1.88;;;;;;;8.96;100.00;100277.81;6277144;28;20041;-75
2022/09/21 05:29:14;;;;;;;3.20;1.75;;;;;;;8.88;100.00;100280.78;6287189;28;20037;-75
2022/09/21 05:32:18;;;;;;;3.95;2.20;;;;;;;8.88;100.00;100289.44;6279322;28;20498;-75
2022/09/21 05:35:49;;;;;;;2.67;2.03;;;;;;;9.14;100.00;100283.81;6269100;28;20087;-75
2022/09/21 05:38:50;;;;;;;3.97;2.42;;;;;;;9.08;100.00;100292.78;6269860;28;20048;-76
2022/09/21 05:41:51;;;;;;;2.03;1.60;;;;;;;8.96;100.00;100285.59;6271248;28;20044;-76
2022/09/21 05:44:52;;;;;;;2.03;1.83;;;;;;;9.14;100.00;100281.19;6270026;28;20041;-75
2022/09/21 05:47:55;;;;;;;4.90;1.80;;;;;;;9.15;100.00;100281.13;6269832;28;20040;-76
2022/09/21 05:51:05;;;;;;;2.72;2.08;;;;;;;9.21;100.00;100296.44;6269616;28;20671;-75
2022/09/21 05:54:22;;;;;;;4.70;1.70;;;;;;;9.38;100.00;100287.75;6270987;28;20075;-75
2022/09/21 05:58:05;;;;;;;3.60;2.05;;;;;;;9.46;100.00;100292.56;6269851;28;20048;-76
2022/09/21 06:01:30;;;;;;;2.40;1.80;;;;;;;9.65;100.00;100295.88;6268844;28;20053;-75
2022/09/21 06:04:31;;;;;;;2.92;1.77;;;;;;;9.53;100.00;100282.66;6269494;28;20069;-75
2022/09/21 06:07:31;;;;;;;2.42;1.80;;;;;;;9.64;100.00;100291.59;6269335;28;20041;-75
2022/09/21 06:10:33;;;;;;;2.15;1.70;;;;;;;9.46;100.00;100289.97;6270664;28;20045;-75
2022/09/21 06:13:34;;;;;;;3.47;2.20;;;;;;;9.56;100.00;100292.94;6270453;28;20045;-75
2022/09/21 06:16:39;;;;;;;3.67;2.00;;;;;;;9.85;100.00;100294.81;6270498;28;20048;-75
2022/09/21 06:19:40;;;;;;;5.60;2.15;;;;;;;9.84;100.00;100297.47;6269173;28;20044;-75
2022/09/21 06:22:41;;;;;;;2.13;1.63;;;;;;;10.09;100.00;100303.06;6270396;28;20436;-76
2022/09/21 06:25:42;;;;;;;3.95;2.25;;;;;;;9.93;100.00;100302.22;6268941;28;20040;-76
2022/09/21 06:28:42;;;;;;;3.92;2.33;;;;;;;10.03;100.00;100307.78;6268960;28;20484;-75
2022/09/21 06:31:43;;;;;;;3.90;2.25;;;;;;;10.13;100.00;100305.47;6268923;28;20136;-75
2022/09/21 06:34:44;;;;;;;3.10;1.80;;;;;;;10.35;100.00;100306.00;6268979;28;20033;-76
2022/09/21 06:37:46;;;;;;;3.45;1.92;;;;;;;10.19;100.00;100312.97;6285850;28;20049;-75
2022/09/21 06:40:47;;;;;;;3.22;1.80;;;;;;;10.19;100.00;100311.22;6269987;28;20041;-76
2022/09/21 06:43:47;;;;;;;3.65;2.25;;;;;;;10.28;100.00;100315.91;6269887;28;20045;-76
2022/09/21 06:46:48;;;;;;;3.85;1.95;;;;;;;10.17;100.00;100315.69;6268746;28;20446;-75
2022/09/21 06:49:49;;;;;;;5.57;1.92;;;;;;;10.22;100.00;100324.06;6269880;28;20106;-76
2022/09/21 06:52:50;;;;;;;2.28;1.73;;;;;;;10.35;100.00;100315.59;6269731;28;20076;-76
2022/09/21 06:55:51;;;;;;;6.63;2.53;;;;;;;10.74;100.00;100329.94;6269812;28;20048;-76
2022/09/21 06:58:52;;;;;;;3.25;2.10;;;;;;;11.00;100.00;100318.81;6251958;28;20056;-75
2022/09/21 07:01:57;;;;;;;3.65;2.15;;;;;;;11.23;100.00;100327.91;6251794;28;20099;-76
2022/09/21 07:04:58;;;;;;;4.53;2.17;;;;;;;11.27;100.00;100326.78;6269702;28;20041;-76
2022/09/21 07:07:58;;;;;;;3.42;2.20;;;;;;;11.47;100.00;100324.78;6269654;28;20037;-76
2022/09/21 07:11:01;;;;;;;3.00;2.25;;;;;;;11.37;100.00;100332.31;6268460;28;20045;-75
2022/09/21 07:14:03;;;;;;;4.57;2.67;;;;;;;11.47;100.00;100336.06;6268237;28;20041;-75
2022/09/21 07:17:04;;;;;;;4.07;2.25;;;;;;;11.75;100.00;100323.91;6272946;28;20049;-76
2022/09/21 07:20:06;;;;;;;2.23;1.97;;;;;;;11.91;100.00;100342.16;6274573;28;20063;-76
2022/09/21 07:23:10;;;;;;;;;;;;;;;12.12;100.00;100336.50;6290825;28;20524;-75
2022/09/21 07:26:12;;;;;;;1.98;1.48;;;;;;;12.34;100.00;100330.78;6274554;28;20015;-75
2022/09/21 07:29:13;;;;;;;3.13;2.22;;;;;;;12.59;100.00;100330.84;6272899;28;20068;-75
2022/09/21 07:32:14;;;;;;;2.65;2.03;;;;;;;12.57;100.00;100329.28;6273218;28;20052;-75
2022/09/21 07:35:15;;;;;;;2.35;1.65;;;;;;;12.93;100.00;100340.88;6256282;28;20059;-76
2022/09/21 07:38:15;;;;;;;2.55;2.08;;;;;;;12.51;100.00;100346.22;6274176;28;20041;-75
2022/09/21 07:41:16;;;;;;;2.78;1.85;;;;;;;12.86;100.00;100333.44;6272728;28;20049;-76
2022/09/21 07:44:21;;;;;;;2.78;1.83;;;;;;;12.99;100.00;100333.50;6272796;28;20098;-76
2022/09/21 07:47:24;;;;;;;2.75;2.03;;;;;;;13.40;100.00;100342.13;6272504;28;20052;-75
2022/09/21 07:50:25;;;;;;;4.10;2.05;;;;;;;13.59;100.00;100333.84;6255987;28;20052;-75
2022/09/21 07:53:26;;;;;;;2.30;1.80;;;;;;;13.57;100.00;100338.34;6273824;28;20503;-75
2022/09/21 07:56:26;;;;;;;3.22;2.20;;;;;;;13.59;100.00;100339.06;6273730;28;20041;-75
2022/09/21 07:59:27;;;;;;;2.85;1.85;;;;;;;13.58;100.00;100334.78;6272518;28;20040;-75
2022/09/21 08:02:28;;;;;;;2.63;1.95;;;;;;;13.71;99.89;100340.84;6272439;28;20051;-75
2022/09/21 08:05:30;;;;;;;2.75;1.85;;;;;;;13.93;99.46;100342.81;6273924;28;20041;-75
2022/09/21 08:08:31;;;;;;;3.88;2.42;;;;;;;14.05;97.26;100341.97;6272334;28;20033;-75
2022/09/21 08:11:32;;;;;;;5.55;2.35;;;;;;;13.85;97.43;100343.34;6272047;28;20053;-75
2022/09/21 08:14:35;;;;;;;2.40;1.88;;;;;;;13.65;96.37;100339.50;6273367;28;20095;-75
2022/09/21 08:17:37;;;;;;;2.75;1.80;;;;;;;13.76;98.00;100344.00;6255947;28;20418;-75
2022/09/21 08:20:38;;;;;;;1.75;1.40;;;;;;;14.33;92.26;100345.25;6273113;28;20111;-75
2022/09/21 08:23:41;;;;;;;2.85;1.58;;;;;;;14.22;92.18;100339.91;6273128;28;20072;-75
2022/09/21 08:26:42;;;;;;;1.92;1.60;;;;;;;14.79;85.17;100346.31;6272432;28;20059;-75
2022/09/21 08:29:43;;;;;;;2.08;1.58;;;;;;;14.90;79.78;100344.56;6270926;28;20580;-75
2022/09/21 08:32:44;;;;;;;2.42;1.40;;;;;;;14.87;82.01;100350.06;6271788;28;20041;-75
2022/09/21 08:35:52;;;;;;;1.50;1.35;;;;;;;15.48;82.72;100351.63;6272794;28;20041;-75
2022/09/21 08:38:55;;;;;;;1.50;1.13;;;;;;;14.77;78.30;100358.75;6273174;28;20120;-75
2022/09/21 08:42:09;;;;;;;3.00;1.00;;;;;;;14.67;79.07;100348.91;6272624;28;20128;-75
2022/09/21 08:45:15;;;;;;;1.92;1.27;;;;;;;14.77;79.87;100358.75;6272644;28;20037;-75
2022/09/21 08:48:23;;;;;;;1.70;1.23;;;;;;;14.87;76.82;100354.47;6272550;28;20492;-75
2022/09/21 08:51:31;;;;;;;1.08;0.82;;;;;;;15.18;73.39;100358.28;6271130;28;20041;-75
2022/09/21 08:54:46;;;;;;;1.00;0.90;;;;;;;15.06;70.98;100360.03;6272342;28;20377;-75
2022/09/21 08:57:47;;;;;;;0.88;0.70;;;;;;;15.04;72.74;100343.53;6271199;28;20099;-75
2022/09/21 09:01:14;;;;;;;1.05;0.90;;;;;;;15.17;74.43;100353.94;6270892;28;20053;-74
2022/09/21 09:04:26;;;;;;;1.77;0.85;;;;;;;15.14;75.75;100362.09;6272163;28;20049;-74
2022/09/21 09:07:53;;;;;;;0.80;0.75;;;;;;;14.95;75.93;100362.63;6270893;28;20253;-74
2022/09/21 09:11:29;;;;;;;0.80;0.80;;;;;;;15.29;74.81;100360.09;6272142;28;20527;-74
2022/09/21 09:14:48;;;;;;;1.95;1.23;;;;;;;16.04;75.17;100356.94;6270771;28;20120;-74
2022/09/21 09:18:11;;;;;;;1.17;1.00;;;;;;;15.83;71.13;100353.34;6287150;28;20057;-74
2022/09/21 09:21:23;;;;;;;1.23;0.98;;;;;;;16.99;71.83;100356.31;6270563;28;20549;-75
2022/09/21 09:24:45;;;;;;;1.33;1.00;;;;;;;16.62;68.64;100356.69;6287534;28;20144;-74
2022/09/21 09:27:50;;;;;;;2.25;1.20;;;;;;;15.99;69.45;100351.19;6270475;28;20052;-74
2022/09/21 09:31:20;;;;;;;0.85;0.70;;;;;;;15.84;70.64;100339.25;6286679;28;20060;-74
2022/09/21 09:34:48;;;;;;;0.60;0.60;;;;;;;15.56;70.25;100354.50;6301492;28;20467;-74
2022/09/21 09:37:50;;;;;;;1.08;0.90;;;;;;;15.30;70.50;100352.09;6270123;28;20319;-74
2022/09/21 09:41:39;;;;;;;1.50;0.88;;;;;;;15.41;69.26;100350.44;6270997;28;20041;-74
2022/09/21 09:44:57;;;;;;;1.20;0.82;;;;;;;15.43;71.84;100349.34;6248555;28;20044;-74
2022/09/21 09:48:13;;;;;;;0.60;0.60;;;;;;;15.36;68.76;100349.94;6269930;28;20480;-74
2022/09/21 09:51:14;;;;;;;0.88;0.73;;;;;;;15.14;70.13;100338.44;6253129;28;20060;-74
2022/09/21 09:54:17;;;;;;;1.00;0.75;;;;;;;15.01;71.95;100343.78;6270995;28;20056;-74
2022/09/21 09:57:27;;;;;;;0.80;0.80;;;;;;;14.97;70.51;100339.72;6271143;28;20069;-74
2022/09/21 10:00:28;;;;;;;1.30;0.75;;;;;;;15.14;72.01;100348.94;6270791;28;20057;-74
2022/09/21 10:03:29;;;;;;;1.67;1.05;;;;;;;15.18;70.68;100339.88;6269720;28;20045;-74
2022/09/21 10:06:31;;;;;;;4.82;0.77;;;;;;;15.07;71.06;100339.84;6270747;28;20191;-74
2022/09/21 10:09:35;;;;;;;0.82;0.80;;;;;;;15.07;70.71;100343.31;6269548;28;20090;-74
2022/09/21 10:12:37;;;;;;;0.65;0.65;;;;;;;15.49;71.10;100334.91;6285876;28;20048;-74
2022/09/21 10:15:44;;;;;;;1.10;1.00;;;;;;;15.73;71.93;100339.22;6269230;28;20048;-74
2022/09/21 10:18:50;;;;;;;1.35;1.10;;;;;;;16.06;69.53;100330.47;6285705;28;20110;-74
2022/09/21 10:21:56;;;;;;;1.25;1.15;;;;;;;16.09;68.09;100338.97;6270261;28;20072;-74
2022/09/21 10:25:00;;;;;;;3.33;1.13;;;;;;;16.19;67.96;100331.19;6270302;28;20060;-74
2022/09/21 10:28:04;;;;;;;1.35;1.00;;;;;;;16.24;67.88;100330.81;6268848;28;20496;-74
2022/09/21 10:31:10;;;;;;;1.80;1.00;;;;;;;16.08;66.68;100331.19;6270063;28;20095;-74
2022/09/21 10:34:15;;;;;;;1.35;0.95;;;;;;;15.50;69.31;100326.03;6270126;28;20062;-74
2022/09/21 10:37:44;;;;;;;1.05;0.90;;;;;;;15.32;69.09;100329.16;6285454;28;20422;-74
2022/09/21 10:40:46;;;;;;;1.20;1.05;;;;;;;16.17;74.88;100317.31;6267886;28;20061;-74
2022/09/21 10:43:49;;;;;;;2.65;1.50;;;;;;;15.54;75.22;100319.59;6268796;28;20072;-74
2022/09/21 10:46:51;;;;;;;1.17;1.00;;;;;;;15.25;75.16;100312.16;6269886;28;20065;-74
2022/09/21 10:49:58;;;;;;;3.83;2.03;;;;;;;15.40;78.70;100314.56;6268218;28;20483;-75
2022/09/21 10:53:20;;;;;;;8.45;4.00;;;;;;;16.13;70.17;100315.88;6269627;28;20175;-75
2022/09/21 10:56:22;;;;;;;9.15;4.78;;;;;;;17.05;66.67;100311.00;6251646;28;20049;-75
2022/09/21 10:59:26;;;;;;;1.55;1.25;;;;;;;17.40;61.87;100309.81;6298947;28;20048;-75
2022/09/21 11:02:35;;;;;;;2.42;2.00;;;;;;;17.59;63.56;100297.66;6309840;28;20494;-75
2022/09/21 11:05:42;;;;;;;4.43;2.72;;;;;;;18.04;60.35;100297.28;6273051;28;20061;-76
2022/09/21 11:08:53;;;;;;;1.73;1.30;;;;;;;17.73;60.39;100298.13;6283583;28;20055;-75
2022/09/21 11:12:06;;;;;;;1.98;1.38;;;;;;;16.88;62.32;100306.28;6268987;28;20045;-75
2022/09/21 11:15:19;;;;;;;1.60;1.50;;;;;;;16.54;63.56;100303.78;6271045;28;20174;-75
2022/09/21 11:18:56;;;;;;;1.80;1.60;;;;;;;16.82;61.79;100310.28;6285307;28;20407;-75
2022/09/21 11:22:26;;;;;;;2.45;1.45;;;;;;;17.14;61.23;100300.63;6286546;28;20040;-75
2022/09/21 11:25:53;;;;;;;1.40;1.30;;;;;;;17.88;61.26;100298.63;6272907;28;20075;-75
2022/09/21 11:29:37;;;;;;;2.13;1.50;;;;;;;17.68;59.58;100289.75;6261766;28;20135;-75
2022/09/21 11:33:02;;;;;;;1.83;1.42;;;;;;;17.73;55.95;100286.75;6202467;28;20548;-75
2022/09/21 11:36:54;;;;;;;2.35;1.30;;;;;;;17.94;55.17;100284.06;6268983;28;20049;-75
2022/09/21 11:40:27;;;;;;;1.20;1.10;;;;;;;17.87;55.20;100283.75;6265128;28;20118;-74
2022/09/21 11:44:13;;;;;;;0.85;0.85;;;;;;;18.23;55.76;100281.44;6267222;28;20072;-73
2022/09/21 11:47:32;;;;;;;3.50;1.00;;;;;;;18.35;53.31;100273.41;6260933;28;20139;-74
2022/09/21 11:50:42;;;;;;;2.25;1.30;;;;;;;18.24;54.01;100269.06;6270014;28;20041;-74
2022/09/21 11:54:22;;;;;;;1.40;0.88;;;;;;;17.63;56.64;100278.78;6252708;28;20056;-74
2022/09/21 11:57:41;;;;;;;1.02;0.90;;;;;;;17.14;59.04;100271.63;6290276;28;20081;-74
2022/09/21 12:01:19;;;;;;;0.73;0.70;;;;;;;16.72;61.61;100275.09;6274988;28;20049;-74
2022/09/21 12:04:32;;;;;;;4.15;1.25;;;;;;;16.57;62.99;100271.91;6266809;28;20407;-74
2022/09/21 12:08:00;;;;;;;1.42;1.20;;;;;;;17.47;63.72;100271.38;6273615;28;20082;-75
2022/09/21 12:11:17;;;;;;;1.85;1.10;;;;;;;17.91;58.43;100266.69;6274398;28;20051;-75
2022/09/21 12:14:26;;;;;;;1.65;1.30;;;;;;;18.39;58.11;100270.34;6288965;28;20533;-74
2022/09/21 12:17:44;;;;;;;0.90;0.90;;;;;;;18.26;54.79;100265.34;6283749;28;20044;-74
2022/09/21 12:20:55;;;;;;;1.30;0.90;;;;;;;17.57;59.26;100265.31;6272069;28;20055;-75
2022/09/21 12:24:30;;;;;;;1.10;1.00;;;;;;;16.68;59.73;100274.50;6291347;28;20047;-75
2022/09/21 12:27:46;;;;;;;1.20;0.80;;;;;;;16.50;64.09;100270.75;6279092;28;20419;-76
2022/09/21 12:30:53;;;;;;;2.45;0.95;;;;;;;16.32;62.14;100262.56;6284829;28;20110;-75
2022/09/21 12:33:54;;;;;;;1.20;0.90;;;;;;;16.09;63.60;100270.53;6290328;28;20044;-75
2022/09/21 12:37:14;;;;;;;1.85;1.20;;;;;;;16.28;67.68;100277.75;6295621;28;20067;-75
2022/09/21 12:40:27;;;;;;;4.57;1.25;;;;;;;16.19;63.10;100270.63;6296040;28;20102;-75
2022/09/21 12:43:43;;;;;;;1.80;0.73;;;;;;;16.48;62.85;100283.22;6329678;28;20053;-75
2022/09/21 12:46:56;;;;;;;0.50;0.50;;;;;;;16.90;53.34;100291.19;6296034;28;20454;-74
2022/09/21 12:50:18;;;;;;;0.30;0.30;;;;;;;15.57;57.27;100281.72;6297237;28;20048;-75
2022/09/21 12:53:22;;;;;;;0.50;0.40;;;;;;;15.87;59.45;100281.09;6297331;28;20078;-75
2022/09/21 12:57:01;;;;;;;1.38;0.38;;;;;;;16.20;59.52;100282.81;6296324;28;20036;-75
2022/09/21 13:00:15;;;;;;;1.67;0.43;;;;;;;16.13;61.99;100268.50;6273684;28;20140;-75
2022/09/21 13:03:31;;;;;;;0.40;0.30;;;;;;;16.39;61.69;100278.69;6295912;28;20055;-75
2022/09/21 13:07:03;;;;;;;4.43;0.73;;;;;;;16.38;61.88;100277.88;6295670;28;20079;-74
2022/09/21 13:10:15;;;;;;;2.33;1.42;;;;;;;16.38;62.68;100266.50;6295721;28;20123;-75
2022/09/21 13:13:23;;;;;;;5.95;2.80;;;;;;;16.72;61.10;100265.38;6294879;28;20047;-75
2022/09/21 13:16:36;;;;;;;2.78;1.60;;;;;;;16.86;58.71;100269.53;6296725;28;20120;-75
2022/09/21 13:19:37;;;;;;;3.78;0.98;;;;;;;16.84;59.09;100260.94;6295513;28;20119;-75
2022/09/21 13:22:38;;;;;;;0.82;0.50;;;;;;;16.47;59.14;100263.09;6296534;28;20041;-74
2022/09/21 13:25:39;;;;;;;0.38;0.38;;;;;;;16.58;61.40;100264.88;6295494;28;20052;-74
2022/09/21 13:28:53;;;;;;;0.95;0.20;;;;;;;16.49;57.69;100261.16;6295490;28;20040;-75
2022/09/21 13:32:11;;;;;;;0.20;0.20;;;;;;;16.28;60.46;100267.22;6295023;28;20055;-75
2022/09/21 13:35:46;;;;;;;0.75;0.55;;;;;;;16.79;60.67;100270.13;6278320;28;20052;-75
2022/09/21 13:38:50;;;;;;;1.88;0.50;;;;;;;16.95;62.29;100273.19;6295058;28;20113;-74
2022/09/21 13:41:53;;;;;;;0.77;0.55;;;;;;;17.27;64.03;100265.16;6296045;28;20127;-75
2022/09/21 13:44:56;;;;;;;0.90;0.45;;;;;;;17.47;62.04;100260.81;6296072;28;20060;-75
2022/09/21 13:48:11;;;;;;;1.15;0.63;;;;;;;17.40;60.43;100258.81;6296008;28;20041;-75
2022/09/21 13:51:17;;;;;;;1.08;0.80;;;;;;;17.63;60.24;100252.41;6296021;28;20037;-75
2022/09/21 13:54:21;;;;;;;1.15;0.73;;;;;;;17.78;59.59;100249.38;6295640;28;20040;-75
2022/09/21 13:57:44;;;;;;;0.77;0.43;;;;;;;17.70;60.03;100261.44;6295863;28;20041;-75
2022/09/21 14:00:48;;;;;;;0.88;0.50;;;;;;;17.47;58.69;100259.97;6295703;28;20442;-75
2022/09/21 14:03:54;;;;;;;0.95;0.60;;;;;;;17.32;61.70;100257.69;6294365;28;20518;-75
2022/09/21 14:06:56;;;;;;;0.88;0.70;;;;;;;17.19;60.32;100258.88;6310979;28;20045;-75
2022/09/21 14:10:02;;;;;;;1.00;0.70;;;;;;;16.52;63.29;100266.19;6294327;28;20066;-75
2022/09/21 14:13:21;;;;;;;1.30;0.70;;;;;;;15.92;65.86;100273.69;6310876;28;20071;-75
2022/09/21 14:16:32;;;;;;;1.38;0.73;;;;;;;15.67;69.53;100272.97;6294177;28;20043;-75
2022/09/21 14:19:33;;;;;;;0.98;0.70;;;;;;;15.20;71.63;100271.44;6295276;28;20082;-75
2022/09/21 14:22:37;;;;;;;1.35;0.82;;;;;;;15.31;77.33;100269.63;6295239;28;20041;-75
2022/09/21 14:25:51;;;;;;;2.17;1.33;;;;;;;15.21;78.47;100265.19;6292945;28;20040;-75
2022/09/21 14:28:52;;;;;;;2.13;1.33;;;;;;;15.12;77.50;100277.25;6293996;28;20127;-74
2022/09/21 14:31:57;;;;;;;1.50;1.23;;;;;;;14.95;78.26;100277.69;6327292;28;20487;-75
2022/09/21 14:35:10;;;;;;;2.20;1.65;;;;;;;14.54;76.50;100274.56;6293553;28;20057;-75